sensor_id;sensor_type;location;lat;lon;timestamp;pressure;altitude;pressure_sealevel;temperature;humidity
18022;BME280;9136;48.822;7.966;2023-05-01T00:01:54;100146.72;;;11.06;100.00
18022;BME280;9136;48.822;7.966;2023-05-01T00:04:42;100165.59;;;11.17;100.00
18022;BME280;9136;48.822;7.966;2023-05-01T00:07:30;100143.19;;;11.07;100.00
18022;BME280;9136;48.822;7.966;2023-05-01T00:10:17;100124.38;;;10.94;100.00
18022;BME280;9136;48.822;7.966;2023-05-01T00:13:05;100150.84;;;11.13;100.00
18022;BME280;9136;48.822;7.966;2023-05-01T00:15:54;100119.06;;;10.96;100.00
18022;BME280;9136;48.822;7.966;2023-05-01T00:18:44;100119.06;;;10.96;100.00
18022;BME280;9136;48.822;7.966;2023-05-01T00:21:31;100114.06;;;10.88;100.00
18022;BME280;9136;48.822;7.966;2023-05-01T00:24:19;100123.44;;;10.95;100.00
18022;BME280;9136;48.822;7.966;2023-05-01T00:27:07;100121.84;;;10.91;100.00
18022;BME280;9136;48.822;7.966;2023-05-01T00:29:55;100117.72;;;10.84;100.00
18022;BME280;9136;48.822;7.966;2023-05-01T00:32:43;100092.69;;;10.74;100.00
18022;BME280;9136;48.822;7.966;2023-05-01T00:35:32;100124.25;;;10.97;100.00
18022;BME280;9136;48.822;7.966;2023-05-01T00:38:21;100110.63;;;10.86;100.00
18022;BME280;9136;48.822;7.966;2023-05-01T00:41:09;100097.16;;;10.70;100.00
18022;BME280;9136;48.822;7.966;2023-05-01T00:43:57;100078.25;;;10.60;100.00
18022;BME280;9136;48.822;7.966;2023-05-01T00:46:45;100077.38;;;10.60;100.00
18022;BME280;9136;48.822;7.966;2023-05-01T00:49:32;100087.81;;;10.63;100.00
18022;BME280;9136;48.822;7.966;2023-05-01T00:52:23;100088.66;;;10.64;100.00
18022;BME280;9136;48.822;7.966;2023-05-01T00:55:11;100098.94;;;10.70;100.00
18022;BME280;9136;48.822;7.966;2023-05-01T00:57:59;100090.81;;;10.52;100.00
18022;BME280;9136;48.822;7.966;2023-05-01T01:00:48;100101.03;;;10.60;100.00
18022;BME280;9136;48.822;7.966;2023-05-01T01:03:35;100079.72;;;10.44;100.00
18022;BME280;9136;48.822;7.966;2023-05-01T01:06:32;100066.72;;;10.40;100.00
18022;BME280;9136;48.822;7.966;2023-05-01T01:09:31;100066.94;;;10.34;100.00
18022;BME280;9136;48.822;7.966;2023-05-01T01:12:26;100077.03;;;10.46;100.00
18022;BME280;9136;48.822;7.966;2023-05-01T01:15:24;100076.31;;;10.41;100.00
18022;BME280;9136;48.822;7.966;2023-05-01T01:18:17;100077.16;;;10.43;100.00
18022;BME280;9136;48.822;7.966;2023-05-01T01:21:11;100025.59;;;10.14;100.00
18022;BME280;9136;48.822;7.966;2023-05-01T01:24:18;100053.22;;;10.25;100.00
18022;BME280;9136;48.822;7.966;2023-05-01T01:27:38;100054.03;;;10.27;100.00
18022;BME280;9136;48.822;7.966;2023-05-01T01:30:52;100073.31;;;10.26;100.00
18022;BME280;9136;48.822;7.966;2023-05-01T01:33:58;100041.19;;;9.92;100.00
18022;BME280;9136;48.822;7.966;2023-05-01T01:36:50;100051.84;;;9.87;100.00
18022;BME280;9136;48.822;7.966;2023-05-01T01:39:45;100032.69;;;9.84;100.00
18022;BME280;9136;48.822;7.966;2023-05-01T01:42:39;100040.69;;;9.81;100.00
18022;BME280;9136;48.822;7.966;2023-05-01T01:45:30;100043.25;;;9.82;100.00
18022;BME280;9136;48.822;7.966;2023-05-01T01:48:25;100057.72;;;9.94;100.00
18022;BME280;9136;48.822;7.966;2023-05-01T01:51:18;100034.56;;;9.80;100.00
18022;BME280;9136;48.822;7.966;2023-05-01T01:54:10;100063.53;;;10.03;100.00
18022;BME280;9136;48.822;7.966;2023-05-01T01:57:01;100060.03;;;10.03;100.00
18022;BME280;9136;48.822;7.966;2023-05-01T01:59:50;100058.28;;;10.03;100.00
18022;BME280;9136;48.822;7.966;2023-05-01T02:02:38;100059.16;;;10.04;100.00
18022;BME280;9136;48.822;7.966;2023-05-01T02:05:27;100071.06;;;10.14;100.00
18022;BME280;9136;48.822;7.966;2023-05-01T02:08:17;100072.41;;;10.27;100.00
18022;BME280;9136;48.822;7.966;2023-05-01T02:11:07;100062.75;;;10.28;100.00
18022;BME280;9136;48.822;7.966;2023-05-01T02:13:56;100026.53;;;10.11;100.00
18022;BME280;9136;48.822;7.966;2023-05-01T02:16:47;100029.22;;;10.10;100.00
18022;BME280;9136;48.822;7.966;2023-05-01T02:19:37;100050.06;;;10.14;100.00
18022;BME280;9136;48.822;7.966;2023-05-01T02:22:26;100068.41;;;10.16;100.00
18022;BME280;9136;48.822;7.966;2023-05-01T02:25:16;100039.97;;;10.02;100.00
18022;BME280;9136;48.822;7.966;2023-05-01T02:28:08;100040.81;;;10.02;100.00
18022;BME280;9136;48.822;7.966;2023-05-01T02:30:58;100022.81;;;9.92;100.00
18022;BME280;9136;48.822;7.966;2023-05-01T02:33:46;100048.66;;;10.04;100.00
18022;BME280;9136;48.822;7.966;2023-05-01T02:36:36;100021.66;;;10.00;100.00
18022;BME280;9136;48.822;7.966;2023-05-01T02:39:23;100000.34;;;9.85;100.00
18022;BME280;9136;48.822;7.966;2023-05-01T02:42:15;100032.69;;;10.10;100.00
18022;BME280;9136;48.822;7.966;2023-05-01T02:45:06;100020.53;;;10.08;100.00
18022;BME280;9136;48.822;7.966;2023-05-01T02:47:58;100012.97;;;9.98;100.00
18022;BME280;9136;48.822;7.966;2023-05-01T02:50:48;100022.56;;;9.99;100.00
18022;BME280;9136;48.822;7.966;2023-05-01T02:53:36;100037.16;;;10.08;100.00
18022;BME280;9136;48.822;7.966;2023-05-01T02:56:27;100021.47;;;10.07;100.00
18022;BME280;9136;48.822;7.966;2023-05-01T02:59:16;100000.09;;;9.91;100.00
18022;BME280;9136;48.822;7.966;2023-05-01T03:02:04;99996.50;;;9.95;100.00
18022;BME280;9136;48.822;7.966;2023-05-01T03:04:52;100010.91;;;10.08;100.00
18022;BME280;9136;48.822;7.966;2023-05-01T03:07:39;100005.84;;;10.02;100.00
18022;BME280;9136;48.822;7.966;2023-05-01T03:10:28;99991.31;;;9.92;100.00
18022;BME280;9136;48.822;7.966;2023-05-01T03:13:16;100017.06;;;10.07;100.00
18022;BME280;9136;48.822;7.966;2023-05-01T03:16:06;100008.66;;;9.97;100.00
18022;BME280;9136;48.822;7.966;2023-05-01T03:18:54;100003.13;;;10.05;100.00
18022;BME280;9136;48.822;7.966;2023-05-01T03:21:42;99999.59;;;10.06;100.00
18022;BME280;9136;48.822;7.966;2023-05-01T03:24:29;99982.19;;;10.03;100.00
18022;BME280;9136;48.822;7.966;2023-05-01T03:27:17;100003.72;;;10.13;100.00
18022;BME280;9136;48.822;7.966;2023-05-01T03:30:06;100016.69;;;10.18;100.00
18022;BME280;9136;48.822;7.966;2023-05-01T03:32:56;100009.88;;;10.12;100.00
18022;BME280;9136;48.822;7.966;2023-05-01T03:35:44;100003.72;;;10.13;100.00
18022;BME280;9136;48.822;7.966;2023-05-01T03:38:32;99990.94;;;10.04;100.00
18022;BME280;9136;48.822;7.966;2023-05-01T03:41:20;100019.31;;;10.18;100.00
18022;BME280;9136;48.822;7.966;2023-05-01T03:44:08;100009.78;;;10.15;100.00
18022;BME280;9136;48.822;7.966;2023-05-01T03:46:56;99999.38;;;10.12;100.00
18022;BME280;9136;48.822;7.966;2023-05-01T03:49:46;100007.38;;;10.09;100.00
18022;BME280;9136;48.822;7.966;2023-05-01T03:52:33;99990.94;;;10.04;100.00
18022;BME280;9136;48.822;7.966;2023-05-01T03:55:21;99992.47;;;10.10;100.00
18022;BME280;9136;48.822;7.966;2023-05-01T03:58:09;100017.56;;;10.18;100.00
18022;BME280;9136;48.822;7.966;2023-05-01T04:00:57;100008.97;;;10.13;100.00
18022;BME280;9136;48.822;7.966;2023-05-01T04:03:46;99997.53;;;10.16;100.00
18022;BME280;9136;48.822;7.966;2023-05-01T04:06:35;99984.84;;;10.02;100.00
18022;BME280;9136;48.822;7.966;2023-05-01T04:09:23;99993.22;;;10.13;100.00
18022;BME280;9136;48.822;7.966;2023-05-01T04:12:11;99990.88;;;10.06;100.00
18022;BME280;9136;48.822;7.966;2023-05-01T04:14:59;99969.97;;;10.02;100.00
18022;BME280;9136;48.822;7.966;2023-05-01T04:17:47;99969.09;;;10.02;100.00
18022;BME280;9136;48.822;7.966;2023-05-01T04:20:34;99992.16;;;10.19;100.00
18022;BME280;9136;48.822;7.966;2023-05-01T04:23:24;99981.84;;;10.14;100.00
18022;BME280;9136;48.822;7.966;2023-05-01T04:26:11;99992.16;;;10.19;100.00
18022;BME280;9136;48.822;7.966;2023-05-01T04:28:59;100007.50;;;10.31;100.00
18022;BME280;9136;48.822;7.966;2023-05-01T04:31:47;99994.31;;;10.32;100.00
18022;BME280;9136;48.822;7.966;2023-05-01T04:34:36;99985.59;;;10.32;100.00
18022;BME280;9136;48.822;7.966;2023-05-01T04:37:24;100004.22;;;10.49;100.00
18022;BME280;9136;48.822;7.966;2023-05-01T04:40:14;100020.25;;;10.67;100.00
18022;BME280;9136;48.822;7.966;2023-05-01T04:43:01;100031.06;;;10.82;100.00
18022;BME280;9136;48.822;7.966;2023-05-01T04:45:49;99992.16;;;10.69;100.00
18022;BME280;9136;48.822;7.966;2023-05-01T04:48:37;100017.53;;;10.93;100.00
18022;BME280;9136;48.822;7.966;2023-05-01T04:51:26;100024.28;;;11.00;100.00
18022;BME280;9136;48.822;7.966;2023-05-01T04:54:14;100033.13;;;10.98;100.00
18022;BME280;9136;48.822;7.966;2023-05-01T04:57:03;100035.69;;;10.99;100.00
18022;BME280;9136;48.822;7.966;2023-05-01T04:59:51;100035.06;;;10.93;100.00
18022;BME280;9136;48.822;7.966;2023-05-01T05:02:39;100020.63;;;10.81;100.00
18022;BME280;9136;48.822;7.966;2023-05-01T05:05:26;100035.13;;;10.91;100.00
18022;BME280;9136;48.822;7.966;2023-05-01T05:08:14;100042.03;;;10.94;100.00
18022;BME280;9136;48.822;7.966;2023-05-01T05:11:03;100022.22;;;10.85;100.00
18022;BME280;9136;48.822;7.966;2023-05-01T05:13:52;100005.72;;;10.81;100.00
18022;BME280;9136;48.822;7.966;2023-05-01T05:16:40;100028.44;;;10.82;100.00
18022;BME280;9136;48.822;7.966;2023-05-01T05:19:28;100017.81;;;10.85;100.00
18022;BME280;9136;48.822;7.966;2023-05-01T05:22:15;100031.66;;;10.91;100.00
18022;BME280;9136;48.822;7.966;2023-05-01T05:25:04;100040.91;;;11.01;100.00
18022;BME280;9136;48.822;7.966;2023-05-01T05:27:52;100057.13;;;11.12;100.00
18022;BME280;9136;48.822;7.966;2023-05-01T05:30:42;100025.94;;;11.03;100.00
18022;BME280;9136;48.822;7.966;2023-05-01T05:33:30;100018.97;;;11.02;100.00
18022;BME280;9136;48.822;7.966;2023-05-01T05:36:18;100036.94;;;11.12;100.00
18022;BME280;9136;48.822;7.966;2023-05-01T05:39:05;100045.44;;;11.19;100.00
18022;BME280;9136;48.822;7.966;2023-05-01T05:41:53;100031.63;;;11.14;100.00
18022;BME280;9136;48.822;7.966;2023-05-01T05:44:41;100011.81;;;11.05;100.00
18022;BME280;9136;48.822;7.966;2023-05-01T05:47:30;100041.38;;;11.34;100.00
18022;BME280;9136;48.822;7.966;2023-05-01T05:50:18;100019.16;;;11.19;100.00
18022;BME280;9136;48.822;7.966;2023-05-01T05:53:06;100033.69;;;11.29;100.00
18022;BME280;9136;48.822;7.966;2023-05-01T05:55:55;100034.28;;;11.36;100.00
18022;BME280;9136;48.822;7.966;2023-05-01T05:58:42;100031.50;;;11.40;100.00
18022;BME280;9136;48.822;7.966;2023-05-01T06:01:30;100070.88;;;11.64;100.00
18022;BME280;9136;48.822;7.966;2023-05-01T06:04:19;100060.13;;;11.70;100.00
18022;BME280;9136;48.822;7.966;2023-05-01T06:07:07;100080.28;;;11.93;100.00
18022;BME280;9136;48.822;7.966;2023-05-01T06:09:54;100063.84;;;11.88;100.00
18022;BME280;9136;48.822;7.966;2023-05-01T06:12:46;100054.19;;;11.87;100.00
18022;BME280;9136;48.822;7.966;2023-05-01T06:15:35;100067.50;;;11.84;100.00
18022;BME280;9136;48.822;7.966;2023-05-01T06:18:23;100049.88;;;11.86;100.00
18022;BME280;9136;48.822;7.966;2023-05-01T06:21:13;100040.94;;;11.90;100.00
18022;BME280;9136;48.822;7.966;2023-05-01T06:24:01;100038.78;;;11.99;100.00
18022;BME280;9136;48.822;7.966;2023-05-01T06:26:49;100045.81;;;11.99;100.00
18022;BME280;9136;48.822;7.966;2023-05-01T06:29:37;100042.00;;;12.06;100.00
18022;BME280;9136;48.822;7.966;2023-05-01T06:32:24;100050.84;;;12.25;100.00
18022;BME280;9136;48.822;7.966;2023-05-01T06:35:12;100056.53;;;12.37;100.00
18022;BME280;9136;48.822;7.966;2023-05-01T06:38:01;100028.81;;;12.28;100.00
18022;BME280;9136;48.822;7.966;2023-05-01T06:40:50;100064.09;;;12.44;100.00
18022;BME280;9136;48.822;7.966;2023-05-01T06:43:38;100044.47;;;12.31;100.00
18022;BME280;9136;48.822;7.966;2023-05-01T06:46:25;100069.25;;;12.47;100.00
18022;BME280;9136;48.822;7.966;2023-05-01T06:49:13;100061.59;;;12.41;100.00
18022;BME280;9136;48.822;7.966;2023-05-01T06:52:01;100055.16;;;12.48;100.00
18022;BME280;9136;48.822;7.966;2023-05-01T06:54:50;100073.13;;;12.59;100.00
18022;BME280;9136;48.822;7.966;2023-05-01T06:57:38;100063.13;;;12.47;100.00
18022;BME280;9136;48.822;7.966;2023-05-01T07:00:26;100066.75;;;12.65;100.00
18022;BME280;9136;48.822;7.966;2023-05-01T07:03:14;100100.72;;;12.71;100.00
18022;BME280;9136;48.822;7.966;2023-05-01T07:06:02;100080.63;;;12.68;100.00
18022;BME280;9136;48.822;7.966;2023-05-01T07:08:50;100072.09;;;12.82;100.00
18022;BME280;9136;48.822;7.966;2023-05-01T07:11:39;100093.03;;;13.05;100.00
18022;BME280;9136;48.822;7.966;2023-05-01T07:14:27;100086.78;;;13.08;100.00
18022;BME280;9136;48.822;7.966;2023-05-01T07:17:15;100088.13;;;12.98;100.00
18022;BME280;9136;48.822;7.966;2023-05-01T07:20:03;100068.25;;;12.70;100.00
18022;BME280;9136;48.822;7.966;2023-05-01T07:22:51;100085.56;;;12.76;100.00
18022;BME280;9136;48.822;7.966;2023-05-01T07:25:39;100067.69;;;12.82;100.00
18022;BME280;9136;48.822;7.966;2023-05-01T07:28:29;100102.91;;;13.21;100.00
18022;BME280;9136;48.822;7.966;2023-05-01T07:31:17;100089.63;;;13.42;100.00
18022;BME280;9136;48.822;7.966;2023-05-01T07:34:05;100068.13;;;13.69;100.00
18022;BME280;9136;48.822;7.966;2023-05-01T07:36:53;100085.84;;;14.03;100.00
18022;BME280;9136;48.822;7.966;2023-05-01T07:39:41;100080.25;;;14.09;100.00
18022;BME280;9136;48.822;7.966;2023-05-01T07:42:29;100088.97;;;14.28;100.00
18022;BME280;9136;48.822;7.966;2023-05-01T07:45:18;100074.91;;;13.56;100.00
18022;BME280;9136;48.822;7.966;2023-05-01T07:48:06;100073.78;;;13.24;100.00
18022;BME280;9136;48.822;7.966;2023-05-01T07:50:55;100072.19;;;13.38;100.00
18022;BME280;9136;48.822;7.966;2023-05-01T07:53:43;100078.53;;;13.15;100.00
18022;BME280;9136;48.822;7.966;2023-05-01T07:56:32;100097.03;;;12.95;100.00
18022;BME280;9136;48.822;7.966;2023-05-01T07:59:20;100083.16;;;12.90;100.00
18022;BME280;9136;48.822;7.966;2023-05-01T08:02:10;100098.34;;;12.85;100.00
18022;BME280;9136;48.822;7.966;2023-05-01T08:04:58;100062.81;;;12.94;100.00
18022;BME280;9136;48.822;7.966;2023-05-01T08:07:48;100069.38;;;13.24;100.00
18022;BME280;9136;48.822;7.966;2023-05-01T08:10:35;100092.88;;;13.66;100.00
18022;BME280;9136;48.822;7.966;2023-05-01T08:13:23;100070.72;;;13.52;100.00
18022;BME280;9136;48.822;7.966;2023-05-01T08:16:11;100081.69;;;13.24;100.00
18022;BME280;9136;48.822;7.966;2023-05-01T08:19:00;100079.09;;;13.60;100.00
18022;BME280;9136;48.822;7.966;2023-05-01T08:21:49;100081.41;;;13.67;100.00
18022;BME280;9136;48.822;7.966;2023-05-01T08:24:37;100072.00;;;13.43;100.00
18022;BME280;9136;48.822;7.966;2023-05-01T08:27:27;100100.78;;;14.21;100.00
18022;BME280;9136;48.822;7.966;2023-05-01T08:30:14;100091.78;;;14.43;100.00
18022;BME280;9136;48.822;7.966;2023-05-01T08:33:02;100092.41;;;14.30;100.00
18022;BME280;9136;48.822;7.966;2023-05-01T08:35:51;100082.22;;;14.40;100.00
18022;BME280;9136;48.822;7.966;2023-05-01T08:38:39;100098.59;;;14.48;100.00
18022;BME280;9136;48.822;7.966;2023-05-01T08:41:27;100094.91;;;14.68;100.00
18022;BME280;9136;48.822;7.966;2023-05-01T08:44:17;100091.34;;;15.02;100.00
18022;BME280;9136;48.822;7.966;2023-05-01T08:47:10;100068.47;;;15.01;100.00
18022;BME280;9136;48.822;7.966;2023-05-01T08:49:59;100077.22;;;15.19;100.00
18022;BME280;9136;48.822;7.966;2023-05-01T08:52:50;100082.38;;;15.05;100.00
18022;BME280;9136;48.822;7.966;2023-05-01T08:55:42;100096.28;;;15.41;100.00
18022;BME280;9136;48.822;7.966;2023-05-01T08:58:32;100083.69;;;15.62;100.00
18022;BME280;9136;48.822;7.966;2023-05-01T09:01:22;100092.63;;;15.60;100.00
18022;BME280;9136;48.822;7.966;2023-05-01T09:04:10;100088.38;;;16.05;100.00
18022;BME280;9136;48.822;7.966;2023-05-01T09:07:00;100072.16;;;15.79;100.00
18022;BME280;9136;48.822;7.966;2023-05-01T09:09:49;100079.47;;;15.58;100.00
18022;BME280;9136;48.822;7.966;2023-05-01T09:12:37;100085.47;;;15.46;100.00
18022;BME280;9136;48.822;7.966;2023-05-01T09:15:27;100058.63;;;15.21;100.00
18022;BME280;9136;48.822;7.966;2023-05-01T09:18:15;100065.72;;;15.36;100.00
18022;BME280;9136;48.822;7.966;2023-05-01T09:21:03;100099.91;;;15.07;100.00
18022;BME280;9136;48.822;7.966;2023-05-01T09:23:51;100084.03;;;15.07;100.00
18022;BME280;9136;48.822;7.966;2023-05-01T09:26:40;100080.75;;;15.35;100.00
18022;BME280;9136;48.822;7.966;2023-05-01T09:29:39;100072.13;;;15.32;100.00
18022;BME280;9136;48.822;7.966;2023-05-01T09:32:27;100087.84;;;15.35;100.00
18022;BME280;9136;48.822;7.966;2023-05-01T09:35:15;100095.78;;;15.35;100.00
18022;BME280;9136;48.822;7.966;2023-05-01T09:38:03;100085.13;;;15.03;100.00
18022;BME280;9136;48.822;7.966;2023-05-01T09:40:52;100086.63;;;14.92;100.00
18022;BME280;9136;48.822;7.966;2023-05-01T09:43:48;100090.16;;;14.75;100.00
18022;BME280;9136;48.822;7.966;2023-05-01T09:46:40;100076.44;;;14.84;100.00
18022;BME280;9136;48.822;7.966;2023-05-01T09:49:45;100077.41;;;15.32;100.00
18022;BME280;9136;48.822;7.966;2023-05-01T09:52:34;100050.44;;;15.57;100.00
18022;BME280;9136;48.822;7.966;2023-05-01T09:55:22;100077.34;;;15.81;100.00
18022;BME280;9136;48.822;7.966;2023-05-01T09:58:25;100068.47;;;15.97;100.00
18022;BME280;9136;48.822;7.966;2023-05-01T10:01:15;100041.66;;;15.88;100.00
18022;BME280;9136;48.822;7.966;2023-05-01T10:04:03;100045.16;;;15.88;100.00
18022;BME280;9136;48.822;7.966;2023-05-01T10:06:51;100050.34;;;16.06;100.00
18022;BME280;9136;48.822;7.966;2023-05-01T10:09:39;100051.19;;;15.90;100.00
18022;BME280;9136;48.822;7.966;2023-05-01T10:12:28;100059.53;;;15.84;100.00
18022;BME280;9136;48.822;7.966;2023-05-01T10:15:19;100031.19;;;16.30;100.00
18022;BME280;9136;48.822;7.966;2023-05-01T10:18:09;100062.94;;;16.16;100.00
18022;BME280;9136;48.822;7.966;2023-05-01T10:20:57;100040.38;;;16.39;100.00
18022;BME280;9136;48.822;7.966;2023-05-01T10:23:45;100048.63;;;16.05;100.00
18022;BME280;9136;48.822;7.966;2023-05-01T10:26:33;100078.44;;;16.38;100.00
18022;BME280;9136;48.822;7.966;2023-05-01T10:29:22;100044.03;;;16.67;100.00
18022;BME280;9136;48.822;7.966;2023-05-01T10:32:10;100054.31;;;17.30;100.00
18022;BME280;9136;48.822;7.966;2023-05-01T10:35:03;100062.81;;;17.49;96.24
18022;BME280;9136;48.822;7.966;2023-05-01T10:37:58;100032.88;;;17.74;97.65
18022;BME280;9136;48.822;7.966;2023-05-01T10:40:48;100065.16;;;18.22;88.95
18022;BME280;9136;48.822;7.966;2023-05-01T10:43:36;100043.16;;;17.93;89.34
18022;BME280;9136;48.822;7.966;2023-05-01T10:46:26;100027.22;;;17.93;88.36
18022;BME280;9136;48.822;7.966;2023-05-01T10:49:15;100042.50;;;18.69;93.72
18022;BME280;9136;48.822;7.966;2023-05-01T10:52:04;100034.31;;;18.19;86.74
18022;BME280;9136;48.822;7.966;2023-05-01T10:54:52;100038.72;;;19.22;81.26
18022;BME280;9136;48.822;7.966;2023-05-01T10:57:43;100037.91;;;20.88;74.59
18022;BME280;9136;48.822;7.966;2023-05-01T11:00:31;100028.47;;;21.83;68.99
18022;BME280;9136;48.822;7.966;2023-05-01T11:03:35;100025.53;;;23.41;54.97
18022;BME280;9136;48.822;7.966;2023-05-01T11:06:25;100036.47;;;23.19;47.72
18022;BME280;9136;48.822;7.966;2023-05-01T11:09:37;100005.34;;;22.46;47.88
18022;BME280;9136;48.822;7.966;2023-05-01T11:12:47;100023.78;;;23.61;48.19
18022;BME280;9136;48.822;7.966;2023-05-01T11:15:37;100027.94;;;24.90;47.70
18022;BME280;9136;48.822;7.966;2023-05-01T11:18:46;100004.03;;;25.33;44.22
18022;BME280;9136;48.822;7.966;2023-05-01T11:21:35;100007.91;;;22.99;45.94
18022;BME280;9136;48.822;7.966;2023-05-01T11:24:30;100018.97;;;21.13;51.64
18022;BME280;9136;48.822;7.966;2023-05-01T11:27:20;100006.88;;;20.05;57.84
18022;BME280;9136;48.822;7.966;2023-05-01T11:30:10;100002.50;;;20.39;59.60
18022;BME280;9136;48.822;7.966;2023-05-01T11:32:58;99992.78;;;21.73;52.74
18022;BME280;9136;48.822;7.966;2023-05-01T11:35:55;99995.91;;;22.72;48.79
18022;BME280;9136;48.822;7.966;2023-05-01T11:38:50;100010.16;;;22.10;49.35
18022;BME280;9136;48.822;7.966;2023-05-01T11:41:38;99991.16;;;22.34;47.96
18022;BME280;9136;48.822;7.966;2023-05-01T11:44:27;99991.66;;;21.32;49.73
18022;BME280;9136;48.822;7.966;2023-05-01T11:47:17;99992.41;;;23.02;48.89
18022;BME280;9136;48.822;7.966;2023-05-01T11:50:06;99978.72;;;23.46;46.87
18022;BME280;9136;48.822;7.966;2023-05-01T11:52:54;99982.13;;;22.56;48.33
18022;BME280;9136;48.822;7.966;2023-05-01T11:55:42;99981.81;;;21.32;45.61
18022;BME280;9136;48.822;7.966;2023-05-01T11:58:32;99966.63;;;20.54;48.32
18022;BME280;9136;48.822;7.966;2023-05-01T12:01:32;99976.63;;;20.97;48.75
18022;BME280;9136;48.822;7.966;2023-05-01T12:04:25;99981.34;;;20.82;46.54
18022;BME280;9136;48.822;7.966;2023-05-01T12:07:20;99978.00;;;19.64;51.55
18022;BME280;9136;48.822;7.966;2023-05-01T12:10:09;99958.00;;;19.22;52.11
18022;BME280;9136;48.822;7.966;2023-05-01T12:12:57;99996.44;;;19.30;51.94
18022;BME280;9136;48.822;7.966;2023-05-01T12:15:46;99973.28;;;18.81;54.26
18022;BME280;9136;48.822;7.966;2023-05-01T12:18:36;99976.38;;;18.63;55.39
18022;BME280;9136;48.822;7.966;2023-05-01T12:21:24;99977.00;;;18.15;59.41
18022;BME280;9136;48.822;7.966;2023-05-01T12:24:15;99988.25;;;18.19;62.54
18022;BME280;9136;48.822;7.966;2023-05-01T12:27:03;99990.41;;;18.39;63.98
18022;BME280;9136;48.822;7.966;2023-05-01T12:29:52;99977.84;;;18.28;61.64
18022;BME280;9136;48.822;7.966;2023-05-01T12:32:40;99981.53;;;18.13;65.45
18022;BME280;9136;48.822;7.966;2023-05-01T12:35:29;99984.63;;;18.07;64.83
18022;BME280;9136;48.822;7.966;2023-05-01T12:38:18;99978.75;;;18.02;64.93
18022;BME280;9136;48.822;7.966;2023-05-01T12:41:06;99984.94;;;18.02;71.48
18022;BME280;9136;48.822;7.966;2023-05-01T12:43:57;99981.00;;;17.95;72.31
18022;BME280;9136;48.822;7.966;2023-05-01T12:46:52;99995.78;;;18.12;72.21
18022;BME280;9136;48.822;7.966;2023-05-01T12:49:40;100012.97;;;18.34;73.71
18022;BME280;9136;48.822;7.966;2023-05-01T12:52:30;99997.41;;;18.15;70.82
18022;BME280;9136;48.822;7.966;2023-05-01T12:55:18;100005.50;;;18.51;68.61
18022;BME280;9136;48.822;7.966;2023-05-01T12:58:06;99974.63;;;19.00;67.65
18022;BME280;9136;48.822;7.966;2023-05-01T13:00:54;99973.38;;;19.66;68.20
18022;BME280;9136;48.822;7.966;2023-05-01T13:03:42;99984.44;;;21.55;58.73
18022;BME280;9136;48.822;7.966;2023-05-01T13:06:31;99984.53;;;24.94;44.91
18022;BME280;9136;48.822;7.966;2023-05-01T13:09:21;99999.25;;;26.26;41.73
18022;BME280;9136;48.822;7.966;2023-05-01T13:12:09;99987.91;;;23.62;44.52
18022;BME280;9136;48.822;7.966;2023-05-01T13:14:59;99976.09;;;21.37;51.75
18022;BME280;9136;48.822;7.966;2023-05-01T13:17:47;99972.09;;;20.07;62.81
18022;BME280;9136;48.822;7.966;2023-05-01T13:20:35;99937.22;;;20.10;66.46
18022;BME280;9136;48.822;7.966;2023-05-01T13:23:24;99941.94;;;22.05;58.89
18022;BME280;9136;48.822;7.966;2023-05-01T13:26:14;99970.34;;;22.17;59.09
18022;BME280;9136;48.822;7.966;2023-05-01T13:29:02;99955.75;;;20.46;71.17
18022;BME280;9136;48.822;7.966;2023-05-01T13:31:50;99967.75;;;18.72;96.78
18022;BME280;9136;48.822;7.966;2023-05-01T13:34:41;99944.88;;;18.06;100.00
18022;BME280;9136;48.822;7.966;2023-05-01T13:37:29;99930.41;;;17.97;100.00
18022;BME280;9136;48.822;7.966;2023-05-01T13:40:17;99961.22;;;18.12;100.00
18022;BME280;9136;48.822;7.966;2023-05-01T13:43:12;99952.03;;;17.51;100.00
18022;BME280;9136;48.822;7.966;2023-05-01T13:46:01;99948.59;;;18.28;100.00
18022;BME280;9136;48.822;7.966;2023-05-01T13:48:49;99965.72;;;18.88;93.27
18022;BME280;9136;48.822;7.966;2023-05-01T13:51:40;99971.13;;;18.99;100.00
18022;BME280;9136;48.822;7.966;2023-05-01T13:54:29;99985.47;;;19.46;90.56
18022;BME280;9136;48.822;7.966;2023-05-01T13:57:17;99968.72;;;19.33;89.99
18022;BME280;9136;48.822;7.966;2023-05-01T14:00:15;99981.38;;;19.66;86.08
18022;BME280;9136;48.822;7.966;2023-05-01T14:03:04;99955.72;;;19.28;95.76
18022;BME280;9136;48.822;7.966;2023-05-01T14:05:52;99983.66;;;18.73;100.00
18022;BME280;9136;48.822;7.966;2023-05-01T14:08:40;99975.94;;;18.18;100.00
18022;BME280;9136;48.822;7.966;2023-05-01T14:11:28;99985.28;;;17.71;100.00
18022;BME280;9136;48.822;7.966;2023-05-01T14:14:17;99961.16;;;18.77;100.00
18022;BME280;9136;48.822;7.966;2023-05-01T14:17:06;99949.16;;;21.61;92.67
18022;BME280;9136;48.822;7.966;2023-05-01T14:19:54;99981.09;;;22.89;78.70
18022;BME280;9136;48.822;7.966;2023-05-01T14:22:43;99961.38;;;23.00;73.84
18022;BME280;9136;48.822;7.966;2023-05-01T14:25:32;99974.13;;;23.86;65.44
18022;BME280;9136;48.822;7.966;2023-05-01T14:28:20;99961.53;;;22.77;62.04
18022;BME280;9136;48.822;7.966;2023-05-01T14:31:14;99972.13;;;20.98;74.45
18022;BME280;9136;48.822;7.966;2023-05-01T14:34:04;99972.63;;;20.23;81.35
18022;BME280;9136;48.822;7.966;2023-05-01T14:36:53;99955.41;;;19.33;93.50
18022;BME280;9136;48.822;7.966;2023-05-01T14:40:10;99970.53;;;18.45;100.00
18022;BME280;9136;48.822;7.966;2023-05-01T14:43:33;99993.41;;;17.95;100.00
18022;BME280;9136;48.822;7.966;2023-05-01T14:46:39;99971.91;;;17.31;100.00
18022;BME280;9136;48.822;7.966;2023-05-01T14:49:40;99957.19;;;16.84;100.00
18022;BME280;9136;48.822;7.966;2023-05-01T14:52:28;99973.59;;;16.77;100.00
18022;BME280;9136;48.822;7.966;2023-05-01T14:55:41;99999.16;;;16.78;100.00